Soaring Guidance
Issued by NWS Reno, NV

Home | Current Version | Previous Version | Text Only | Print | Product List | Glossary On
Versions: 1 2 3 4 5 6 7
000
UXUS97 KREV 061346
SRGREV

SOARING FORECAST
NATIONAL WEATHER SERVICE - RENO NV
700 AM PDT FRI MAY 6 2016

THIS SOARING FORECAST IS FOR THE EASTERN SIERRA AND WESTERN NEVADA
WITH SPECIFIC INDICES FOR THE GREATER RENO AREA.

THIS FORECAST IS PREPARED DAILY BY 700 AM AND IS NOT UPDATED.

FOR CURRENT FLIGHT CONDITIONS...FORECASTS...AND ADVISORIES...ACCESS
YOUR LOCAL BRIEFING OUTLET OR FLIGHT SERVICE STATION.

*******************************************************************
FORECASTED LOCAL INDICES FOR RENO:        TODAY     YESTERDAY
FORECASTED MAX TEMP AT RENO (DEG F).....     65          58
FORECASTED TRIGGER TEMPERATURE (DEG F)..     56          64
   EXCEEDED YESTERDAY BY
FORECASTED MAXIMUM ALTITUDE (FT MSL)....  14600       15000
FORECASTED SOARING INDEX (FPM)..........    828         930
FORECASTED K-INDEX.........VALID 18Z....     25          27
FORECASTED K-INDEX.........VALID 00Z....     28          31
FORECASTED LIFTED INDEX....VALID 18Z....      2           0
FORECASTED LIFTED INDEX....VALID 00Z....     -2          -1

AFTERNOON WINDS ALOFT FORECAST
MSL (FT) WIND/TEMP
9000  3618/+03
10000 3615/+00
12000 3609/-05
14000 2011/-09
16000 1614/-13
18000 1222/-18
24000 0840/-29
30000 0659/-46
34000 0768/-55
39000 0828/-53

SLIDE MOUNTAIN DATA:
     DATE       TIME     TEMP  DEWPT   RH         WIND (MPH)
                        (F)   (F)           | DIR  SPEED GUST
2016-05-06    05:50      30    30    100    | 074   27   34
2016-05-06    05:30      30    30    100    | 074   30   38
2016-05-06    05:20      31    31    100    | 072   35   43
2016-05-06    05:00      31    31    100    | 076   35   41

RENO TAF FORECAST:
KRNO 061128Z 0612/0712 VRB03KT P6SM -SHRA FEW006 BKN035 OVC080
     FM061800 05007KT 6SM -SHRA SCT030 BKN045
     FM062200 07010KT 5SM -SHRA VCTS SCT025CB BKN045
     FM070300 VRB04KT P6SM VCSH SCT030 BKN050

CARSON CITY TAF FORECAST:
KCXP 061128Z 0612/0712 VRB04KT P6SM VCSH BKN035 OVC050
     FM061700 08009KT 6SM -SHRA SCT025 BKN040
     FM062200 09012KT 5SM -SHRA VCTS SCT025CB BKN040
     FM070300 VRB03KT P6SM VCSH SCT030 BKN050

OUTLOOK FOR THE RENO-CARSON CITY-MINDEN AREA:
.SATURDAY...SHOWERS LIKELY AND SLIGHT CHANCE OF THUNDERSTORMS.
HIGHS 59 TO 64. WEST WINDS 10 TO 15 MPH.

SUNRISE AND SUNSET
MAY  6 2016...........SUNRISE   554 AM PDT   SUNSET   758 PM PDT
MAY  7 2016...........SUNRISE   553 AM PDT   SUNSET   759 PM PDT



USA.gov is the U.S. government's official web portal to all federal, state and local government web resources and services.